Time;durP1;ratioP1;P1;durP2;ratioP2;P2;SDS_P1;SDS_P2;PMS_P1;PMS_P2;Temp;Humidity;BMP_temperature;BMP_pressure;BME280_temperature;BME280_humidity;BME280_pressure;Samples;Min_cycle;Max_cycle;Signal;HPM_P1;HPM_P2
2021/12/25 00:01:42;;;;;;;145.83;66.43;;;;;;;-1.85;100.00;-23762.63;5093465;28;20229;-68
2021/12/25 00:04:08;;;;;;;142.00;66.93;;;;;;;-1.60;100.00;-23769.66;5092838;28;20659;-68
2021/12/25 00:06:35;;;;;;;144.13;67.93;;;;;;;-1.22;100.00;-23780.56;5092837;28;20175;-69
2021/12/25 00:09:02;;;;;;;147.67;70.67;;;;;;;-1.70;100.00;-23766.78;5092716;28;20541;-69
2021/12/25 00:11:28;;;;;;;141.10;66.93;;;;;;;-1.46;100.00;-23773.81;5092842;28;20588;-69
2021/12/25 00:13:53;;;;;;;143.40;69.43;;;;;;;-1.80;100.00;-23764.06;5092922;28;20660;-69
2021/12/25 00:16:18;;;;;;;145.67;68.60;;;;;;;-1.52;100.00;-23771.97;5092022;28;20660;-70
2021/12/25 00:18:44;;;;;;;135.67;66.80;;;;;;;-1.35;100.00;-23776.84;5092801;28;20177;-69
2021/12/25 00:21:09;;;;;;;148.13;68.53;;;;;;;-1.81;100.00;-23763.94;5092531;28;20166;-68
2021/12/25 00:23:36;;;;;;;138.50;66.37;;;;;;;-1.45;100.00;-23774.13;5092475;28;20639;-68
2021/12/25 00:26:11;;;;;;;146.80;70.70;;;;;;;-1.70;100.00;-23766.78;5092099;28;20170;-69
2021/12/25 00:28:52;;;;;;;144.90;66.13;;;;;;;-1.63;100.00;-23768.81;5091836;28;20598;-69
2021/12/25 00:36:15;;;;;;;141.27;66.93;;;;;;;-1.30;100.00;-23778.28;5091393;28;20195;-68
2021/12/25 00:38:42;;;;;;;143.63;68.50;;;;;;;-2.15;100.00;-23754.00;5074847;28;20176;-68
2021/12/25 00:41:08;;;;;;;149.07;72.27;;;;;;;-1.54;100.00;-23771.53;5090739;28;20187;-68
2021/12/25 00:43:34;;;;;;;154.57;73.73;;;;;;;-1.77;100.00;-23764.94;5092169;28;20182;-68
2021/12/25 00:46:00;;;;;;;155.43;74.87;;;;;;;-1.74;100.00;-23765.66;5091892;28;20175;-68
2021/12/25 00:48:26;;;;;;;160.80;76.20;;;;;;;-2.22;100.00;-23752.00;5092039;28;20234;-68
2021/12/25 00:50:52;;;;;;;167.27;81.27;;;;;;;-2.09;100.00;-23755.88;5091574;28;20223;-68
2021/12/25 00:53:17;;;;;;;173.90;83.90;;;;;;;-1.66;100.00;-23767.94;5091838;28;20193;-69
2021/12/25 00:55:43;;;;;;;169.80;81.53;;;;;;;-1.44;100.00;-23774.41;5092097;28;20212;-68
2021/12/25 00:58:08;;;;;;;158.57;76.17;;;;;;;-1.39;100.00;-23775.84;5091127;28;20177;-69
2021/12/25 01:00:34;;;;;;;180.23;90.10;;;;;;;-1.64;100.00;-23768.66;5092153;28;20185;-69
2021/12/25 01:02:59;;;;;;;177.93;84.53;;;;;;;-1.56;100.00;-23770.94;5092309;28;20215;-69
2021/12/25 01:05:25;;;;;;;174.97;84.50;;;;;;;-1.28;100.00;-23778.84;5090741;28;20251;-69
2021/12/25 01:07:50;;;;;;;170.87;86.97;;;;;;;-1.60;100.00;-23769.66;5091377;28;20180;-69
2021/12/25 01:10:19;;;;;;;168.77;82.03;;;;;;;-1.50;100.00;-23772.53;5091339;28;20186;-69
2021/12/25 01:15:21;;;;;;;172.70;83.80;;;;;;;-0.97;100.00;-23787.72;5091678;28;20210;-69
2021/12/25 01:26:16;;;;;;;119.60;58.70;;;;;;;-1.18;100.00;-23781.56;5091423;28;20215;-69
2021/12/25 01:31:17;;;;;;;133.30;59.63;;;;;;;-1.90;100.00;-23761.34;5091588;28;20193;-69
2021/12/25 01:48:57;;;;;;;137.23;67.73;;;;;;;-1.59;100.00;-23770.09;5090970;28;20272;-69
2021/12/25 01:51:23;;;;;;;147.73;67.30;;;;;;;-2.12;100.00;-23754.88;5089214;28;20236;-69
2021/12/25 01:53:48;;;;;;;147.40;68.33;;;;;;;-2.07;100.00;-23756.31;5093551;28;20552;-69
2021/12/25 01:56:15;;;;;;;142.73;67.10;;;;;;;-1.62;100.00;-23769.22;5095071;28;20192;-69
2021/12/25 01:58:40;;;;;;;139.30;67.60;;;;;;;-2.11;100.00;-23755.31;5076670;28;20531;-68
2021/12/25 02:01:08;;;;;;;147.83;68.73;;;;;;;-1.91;100.00;-23761.06;5093987;28;20226;-69
2021/12/25 02:03:36;;;;;;;134.73;64.40;;;;;;;-2.00;100.00;-23758.31;5094832;28;20187;-69
2021/12/25 02:06:03;;;;;;;137.03;67.83;;;;;;;-1.67;100.00;-23767.66;5094779;28;20171;-69
2021/12/25 02:08:29;;;;;;;146.27;72.77;;;;;;;-1.96;100.00;-23759.63;5095130;28;20300;-68
2021/12/25 02:10:55;;;;;;;147.20;70.47;;;;;;;-1.87;100.00;-23762.06;5094276;28;20610;-69
2021/12/25 02:13:21;;;;;;;149.13;70.57;;;;;;;-1.60;100.00;-23769.66;5094933;28;20348;-68
2021/12/25 02:15:50;;;;;;;144.67;69.87;;;;;;;-1.58;100.00;-23770.25;5095033;28;20688;-69
2021/12/25 02:18:31;;;;;;;147.80;68.27;;;;;;;-2.04;100.00;-23757.31;5094544;28;20293;-69
2021/12/25 02:21:19;;;;;;;166.97;77.67;;;;;;;-1.53;100.00;-23771.81;5094491;28;20356;-69
2021/12/25 02:23:46;;;;;;;172.53;82.17;;;;;;;-1.73;100.00;-23765.94;5094963;28;20166;-69
2021/12/25 02:26:11;;;;;;;164.60;79.87;;;;;;;-1.88;100.00;-23761.91;5094740;28;20535;-69
2021/12/25 02:28:37;;;;;;;168.17;80.23;;;;;;;-1.37;100.00;-23776.41;5094414;28;20181;-69
2021/12/25 02:31:07;;;;;;;165.70;79.73;;;;;;;-1.29;100.00;-23778.41;5076386;28;20285;-68
2021/12/25 02:33:32;;;;;;;160.23;82.77;;;;;;;-1.28;100.00;-23778.84;5094565;28;20184;-70
2021/12/25 02:35:58;;;;;;;157.87;75.97;;;;;;;-1.45;100.00;-23773.97;5094550;28;20575;-69
2021/12/25 02:38:25;;;;;;;156.57;76.87;;;;;;;-1.66;100.00;-23767.94;5094342;28;20630;-69
2021/12/25 02:40:51;;;;;;;143.27;68.40;;;;;;;-1.86;100.00;-23762.50;5093376;28;20582;-69
2021/12/25 02:43:17;;;;;;;139.43;64.83;;;;;;;-1.87;100.00;-23762.06;5094152;28;20178;-68
2021/12/25 02:45:42;;;;;;;146.27;68.73;;;;;;;-2.07;100.00;-23756.47;5094039;28;20203;-68
2021/12/25 02:48:10;;;;;;;135.27;63.93;;;;;;;-2.43;100.00;-23746.25;5094262;28;20167;-69
2021/12/25 02:50:38;;;;;;;135.33;63.27;;;;;;;-1.83;100.00;-23763.34;5094326;28;20217;-69
2021/12/25 02:53:07;;;;;;;139.63;66.07;;;;;;;-1.74;100.00;-23765.66;5094249;28;20178;-69
2021/12/25 02:55:34;;;;;;;136.60;64.63;;;;;;;-1.94;100.00;-23760.06;5093845;28;20197;-69
2021/12/25 02:58:00;;;;;;;135.17;64.53;;;;;;;-2.08;100.00;-23756.03;5094038;28;20227;-69
2021/12/25 03:00:32;;;;;;;141.23;66.07;;;;;;;-1.91;100.00;-23760.91;5094061;28;20575;-69
2021/12/25 03:03:00;;;;;;;135.67;63.57;;;;;;;-1.92;100.00;-23760.63;5093661;28;20197;-69
2021/12/25 03:05:26;;;;;;;143.00;64.60;;;;;;;-1.56;100.00;-23770.94;5093408;28;20606;-69
2021/12/25 03:07:51;;;;;;;138.90;63.87;;;;;;;-2.04;100.00;-23757.19;5093298;28;20186;-69
2021/12/25 03:10:18;;;;;;;133.03;62.00;;;;;;;-2.05;100.00;-23757.03;5093330;28;20579;-69
2021/12/25 03:12:54;;;;;;;132.67;63.57;;;;;;;-1.63;100.00;-23768.81;5093714;28;20651;-69
2021/12/25 03:15:30;;;;;;;131.77;61.73;;;;;;;-2.00;100.00;-23758.31;5093517;28;20202;-69
2021/12/25 03:17:57;;;;;;;133.20;61.73;;;;;;;-1.71;100.00;-23766.50;5092936;28;20186;-69
2021/12/25 03:20:23;;;;;;;134.17;63.83;;;;;;;-1.73;100.00;-23766.06;5093600;28;20275;-70
2021/12/25 03:22:49;;;;;;;138.97;65.53;;;;;;;-2.24;100.00;-23751.56;5093683;28;20261;-69
2021/12/25 03:25:17;;;;;;;136.10;64.53;;;;;;;-2.33;100.00;-23749.13;5092910;28;20328;-69
2021/12/25 03:27:45;;;;;;;131.77;63.30;;;;;;;-1.91;100.00;-23761.06;5092864;28;20261;-70
2021/12/25 03:30:16;;;;;;;126.07;60.63;;;;;;;-2.39;100.00;-23747.25;5093641;28;20182;-69
2021/12/25 03:32:43;;;;;;;128.90;62.83;;;;;;;-2.23;100.00;-23751.88;5093578;28;20178;-69
2021/12/25 03:35:09;;;;;;;134.17;63.30;;;;;;;-1.90;100.00;-23761.34;5093221;28;20190;-69
2021/12/25 03:37:34;;;;;;;126.43;62.10;;;;;;;-1.60;100.00;-23769.81;5093458;28;20177;-69
2021/12/25 03:40:00;;;;;;;133.50;64.33;;;;;;;-1.63;100.00;-23768.81;5093291;28;20167;-69
2021/12/25 03:42:25;;;;;;;126.13;59.80;;;;;;;-2.10;100.00;-23755.59;5092975;28;20226;-69
2021/12/25 03:44:51;;;;;;;127.03;60.37;;;;;;;-1.87;100.00;-23762.06;5092835;28;20172;-69
2021/12/25 03:47:31;;;;;;;130.97;62.27;;;;;;;-2.62;100.00;-23740.81;5092324;28;20185;-69
2021/12/25 03:58:13;;;;;;;119.37;59.90;;;;;;;-1.52;100.00;-23772.09;5093281;28;20721;-68
2021/12/25 04:00:41;;;;;;;125.17;61.40;;;;;;;-2.03;100.00;-23757.47;5091991;28;20170;-68
2021/12/25 04:03:10;;;;;;;120.40;59.00;;;;;;;-1.59;100.00;-23769.94;5091240;28;20171;-68
2021/12/25 04:05:38;;;;;;;120.33;58.07;;;;;;;-1.53;100.00;-23771.81;5090061;28;20179;-68
2021/12/25 04:10:34;;;;;;;115.93;57.73;;;;;;;-1.53;100.00;-23771.81;5090560;28;20215;-68
2021/12/25 04:13:01;;;;;;;117.33;55.83;;;;;;;-1.53;100.00;-23771.81;5091829;28;20171;-68
2021/12/25 04:15:26;;;;;;;113.27;55.33;;;;;;;-1.97;100.00;-23759.19;5089625;28;20205;-68
2021/12/25 04:17:52;;;;;;;120.77;54.97;;;;;;;-1.82;100.00;-23763.63;5090347;28;20209;-69
2021/12/25 04:20:18;;;;;;;112.67;54.43;;;;;;;-1.59;100.00;-23769.94;5090274;28;20263;-69
2021/12/25 04:22:55;;;;;;;124.80;55.60;;;;;;;-1.42;100.00;-23774.81;5089541;28;20174;-69
2021/12/25 04:25:26;;;;;;;104.83;53.00;;;;;;;-1.55;100.00;-23771.09;5088282;28;20209;-69
2021/12/25 04:27:52;;;;;;;104.97;53.30;;;;;;;-1.52;100.00;-23771.97;5089657;28;20223;-69
2021/12/25 04:31:10;;;;;;;109.73;53.67;;;;;;;-1.71;100.00;-23766.66;5090835;28;20642;-69
2021/12/25 05:05:02;;;;;;;128.90;58.17;;;;;;;-1.53;100.00;-23771.69;5090726;28;20646;-69
2021/12/25 05:07:27;;;;;;;120.97;57.93;;;;;;;-1.86;100.00;-23762.50;5090057;28;20179;-69
2021/12/25 05:09:53;;;;;;;120.20;59.60;;;;;;;-1.32;100.00;-23777.69;5090925;28;20245;-69
2021/12/25 05:12:19;;;;;;;114.53;57.40;;;;;;;-1.50;100.00;-23772.69;5091026;28;20261;-69
2021/12/25 05:14:45;;;;;;;122.27;58.93;;;;;;;-1.29;100.00;-23778.41;5091086;28;20202;-70
2021/12/25 05:17:12;;;;;;;132.40;61.13;;;;;;;-1.22;100.00;-23780.44;5089072;28;20209;-68
2021/12/25 05:19:38;;;;;;;119.17;59.27;;;;;;;-1.10;100.00;-23783.88;5089693;28;20186;-68
2021/12/25 05:22:04;;;;;;;126.70;62.33;;;;;;;-1.13;100.00;-23783.16;5086874;28;20635;-68
2021/12/25 05:24:30;;;;;;;121.47;57.17;;;;;;;-1.59;100.00;-23770.09;5091789;28;20236;-69
2021/12/25 05:26:57;;;;;;;124.00;56.53;;;;;;;-1.77;100.00;-23764.94;5092327;28;20187;-71
2021/12/25 05:29:24;;;;;;;112.30;56.37;;;;;;;-1.01;100.00;-23786.59;5095663;28;20175;-69
2021/12/25 05:31:51;;;;;;;112.17;55.20;;;;;;;-1.03;100.00;-23785.88;5057356;28;20627;-69
2021/12/25 05:34:17;;;;;;;112.57;55.27;;;;;;;-1.37;100.00;-23776.25;5080616;28;20693;-70
2021/12/25 05:36:42;;;;;;;114.67;55.97;;;;;;;-1.33;100.00;-23777.56;5077296;28;20180;-69
2021/12/25 05:39:12;;;;;;;108.87;54.93;;;;;;;-1.73;100.00;-23765.94;5095605;28;20187;-70
2021/12/25 05:41:37;;;;;;;107.73;52.13;;;;;;;-1.72;100.00;-23766.22;5095564;28;20161;-70
2021/12/25 05:44:03;;;;;;;98.53;50.10;;;;;;;-1.50;100.00;-23772.69;5095864;28;20752;-67
2021/12/25 05:46:29;;;;;;;114.60;55.67;;;;;;;-1.77;100.00;-23764.78;5095471;28;20721;-68
2021/12/25 05:48:54;;;;;;;108.80;56.83;;;;;;;-1.43;100.00;-23774.69;5093793;28;20263;-71
2021/12/25 05:51:20;;;;;;;113.07;54.90;;;;;;;-1.30;100.00;-23778.13;5092554;28;20221;-69
2021/12/25 05:53:46;;;;;;;111.70;54.07;;;;;;;-1.29;100.00;-23778.56;5093167;28;20533;-69
2021/12/25 05:56:12;;;;;;;99.63;50.57;;;;;;;-1.47;100.00;-23773.41;5093420;28;20570;-68
2021/12/25 05:58:37;;;;;;;114.03;53.80;;;;;;;-1.33;100.00;-23777.56;5093359;28;20256;-68
2021/12/25 06:01:03;;;;;;;99.80;50.20;;;;;;;-1.32;100.00;-23777.69;5092161;28;20717;-68
2021/12/25 06:03:29;;;;;;;97.83;46.97;;;;;;;-1.38;100.00;-23776.13;5093672;28;20189;-68
2021/12/25 06:05:57;;;;;;;83.80;43.50;;;;;;;-1.62;100.00;-23769.09;5092903;28;20178;-68
2021/12/25 06:08:23;;;;;;;86.10;43.60;;;;;;;-1.40;100.00;-23775.53;5091502;28;20175;-68
2021/12/25 06:10:49;;;;;;;88.60;45.63;;;;;;;-1.31;100.00;-23778.00;5092913;28;20186;-68
2021/12/25 06:13:18;;;;;;;88.03;45.20;;;;;;;-1.74;100.00;-23765.78;5093528;28;20267;-69
2021/12/25 06:15:44;;;;;;;89.30;43.33;;;;;;;-1.33;100.00;-23777.41;5093351;28;20212;-69
2021/12/25 06:18:10;;;;;;;88.63;44.23;;;;;;;-1.74;100.00;-23765.66;5091906;28;20232;-69
2021/12/25 06:20:37;;;;;;;85.33;43.87;;;;;;;-1.17;100.00;-23782.00;5093118;28;20188;-69
2021/12/25 06:23:03;;;;;;;91.67;45.20;;;;;;;-1.18;100.00;-23781.72;5093817;28;20216;-69
2021/12/25 06:25:28;;;;;;;83.90;45.27;;;;;;;-1.06;100.00;-23785.16;5091968;28;20216;-69
2021/12/25 06:27:54;;;;;;;90.27;44.97;;;;;;;-1.42;100.00;-23774.97;5092089;28;20209;-69
2021/12/25 06:30:20;;;;;;;91.53;45.73;;;;;;;-1.17;100.00;-23781.84;5092724;28;20195;-69
2021/12/25 06:32:46;;;;;;;95.60;46.57;;;;;;;-1.35;100.00;-23776.84;5092282;28;20190;-69
2021/12/25 06:35:12;;;;;;;81.37;42.07;;;;;;;-1.30;100.00;-23778.13;5079806;28;20203;-71
2021/12/25 06:37:40;;;;;;;88.67;43.30;;;;;;;-0.86;100.00;-23790.75;5090244;28;20181;-70
2021/12/25 06:40:06;;;;;;;79.40;42.03;;;;;;;-1.36;100.00;-23776.69;5091807;28;20643;-70
2021/12/25 06:42:32;;;;;;;79.13;40.83;;;;;;;-0.80;100.00;-23792.47;5090717;28;20226;-70
2021/12/25 06:44:57;;;;;;;78.63;41.50;;;;;;;-1.49;100.00;-23772.97;5092845;28;20227;-70
2021/12/25 06:47:22;;;;;;;81.80;41.80;;;;;;;-0.70;100.00;-23795.19;5091218;28;20631;-69
2021/12/25 06:49:48;;;;;;;74.77;40.63;;;;;;;-0.47;100.00;-23801.94;5092082;28;20313;-70
2021/12/25 06:52:13;;;;;;;72.37;38.93;;;;;;;-0.58;100.00;-23798.63;5091715;28;20209;-69
2021/12/25 06:54:39;;;;;;;78.57;39.37;;;;;;;-0.98;100.00;-23787.44;5088606;28;20274;-69
2021/12/25 06:57:04;;;;;;;69.97;36.70;;;;;;;-1.06;100.00;-23785.16;5091844;28;20559;-69
2021/12/25 06:59:30;;;;;;;73.53;38.93;;;;;;;-0.64;100.00;-23797.06;5091851;28;20189;-69
2021/12/25 07:01:56;;;;;;;73.87;39.03;;;;;;;-0.48;100.00;-23801.50;5092048;28;20192;-70
2021/12/25 07:04:21;;;;;;;71.17;38.33;;;;;;;-0.78;100.00;-23792.91;5092444;28;20176;-69
2021/12/25 07:06:47;;;;;;;78.07;38.17;;;;;;;-0.17;100.00;-23810.25;5091260;28;20620;-70
2021/12/25 07:09:12;;;;;;;79.93;40.23;;;;;;;-0.12;100.00;-23811.81;5091894;28;20185;-69
2021/12/25 07:11:38;;;;;;;68.40;37.20;;;;;;;0.04;100.00;-23816.13;5091978;28;20189;-69
2021/12/25 07:14:08;;;;;;;70.17;38.80;;;;;;;-0.34;100.00;-23805.50;5091830;28;20250;-72
2021/12/25 07:16:34;;;;;;;83.17;41.80;;;;;;;0.15;100.00;-23819.25;5091538;28;20210;-69
2021/12/25 07:18:59;;;;;;;125.53;65.67;;;;;;;0.35;100.00;-23825.00;5091702;28;20211;-69
2021/12/25 07:21:25;;;;;;;146.13;79.03;;;;;;;0.42;100.00;-23827.13;5091743;28;20642;-69
2021/12/25 07:23:51;;;;;;;141.00;77.37;;;;;;;0.20;100.00;-23820.69;5091279;28;20193;-69
2021/12/25 07:26:17;;;;;;;149.53;78.73;;;;;;;0.17;100.00;-23819.84;5092217;28;20184;-69
2021/12/25 07:28:44;;;;;;;151.57;80.30;;;;;;;0.41;100.00;-23826.84;5091322;28;20180;-69
2021/12/25 07:31:10;;;;;;;141.27;78.50;;;;;;;0.65;100.00;-23833.56;5092080;28;20191;-69
2021/12/25 07:33:36;;;;;;;125.67;67.60;;;;;;;0.99;100.00;-23843.00;5090530;28;20195;-69
2021/12/25 07:36:03;;;;;;;119.23;61.67;;;;;;;1.23;100.00;-23850.03;5091095;28;20200;-69
2021/12/25 07:38:29;;;;;;;109.83;57.27;;;;;;;1.85;100.00;-23867.31;5090040;28;20216;-68
2021/12/25 07:40:55;;;;;;;104.37;59.13;;;;;;;1.74;100.00;-23864.31;5091763;28;20208;-68
2021/12/25 07:43:21;;;;;;;102.27;56.03;;;;;;;1.96;100.00;-23870.59;5091318;28;20188;-68
2021/12/25 07:45:47;;;;;;;99.90;50.43;;;;;;;2.30;100.00;-23880.16;5090727;28;20176;-69
2021/12/25 07:48:14;;;;;;;96.00;50.63;;;;;;;2.42;100.00;-23883.44;5090841;28;20553;-69
2021/12/25 07:50:40;;;;;;;94.60;50.37;;;;;;;2.53;100.00;-23886.59;5090460;28;20674;-69
2021/12/25 07:53:06;;;;;;;90.60;50.37;;;;;;;2.94;100.00;-23898.16;5088460;28;20201;-69
2021/12/25 07:55:32;;;;;;;97.57;50.53;;;;;;;3.13;100.00;-23903.44;5090888;28;20710;-69
2021/12/25 07:58:01;;;;;;;92.13;49.13;;;;;;;3.54;100.00;-23915.25;5090537;28;20185;-69
2021/12/25 08:00:27;;;;;;;96.83;49.40;;;;;;;3.98;100.00;-23927.50;5091122;28;20177;-69
2021/12/25 08:02:52;;;;;;;86.77;48.43;;;;;;;4.14;100.00;-23932.06;5089907;28;20178;-68
2021/12/25 08:05:18;;;;;;;93.40;49.23;;;;;;;4.37;100.00;-23938.63;5092195;28;20629;-70
2021/12/25 08:07:44;;;;;;;84.67;47.17;;;;;;;5.02;100.00;-23956.69;5090895;28;20185;-68
2021/12/25 08:10:13;;;;;;;81.50;45.73;;;;;;;4.96;100.00;-23955.00;5091473;28;20701;-69
2021/12/25 08:12:50;;;;;;;84.23;48.43;;;;;;;4.44;100.00;-23940.47;5090249;28;20189;-69
2021/12/25 08:15:18;;;;;;;79.27;44.50;;;;;;;4.80;100.00;-23950.56;5097498;28;20219;-69
2021/12/25 08:17:44;;;;;;;94.60;47.37;;;;;;;5.17;100.00;-23961.09;5089966;28;20188;-70
2021/12/25 08:20:11;;;;;;;81.97;46.50;;;;;;;5.77;100.00;-23977.88;5091547;28;20251;-69
2021/12/25 08:22:37;;;;;;;87.97;48.30;;;;;;;5.75;100.00;-23977.31;5090147;28;20189;-70
2021/12/25 08:25:04;;;;;;;95.20;50.63;;;;;;;5.79;100.00;-23978.59;5091008;28;20185;-70
2021/12/25 08:27:30;;;;;;;92.43;50.90;;;;;;;5.67;100.00;-23975.03;5090221;28;20181;-69
2021/12/25 08:29:56;;;;;;;94.67;52.37;;;;;;;5.68;100.00;-23975.31;5090167;28;20177;-69
2021/12/25 08:32:22;;;;;;;102.43;54.13;;;;;;;5.73;100.00;-23976.75;5090510;28;20188;-69
2021/12/25 08:34:47;;;;;;;98.57;54.43;;;;;;;6.29;100.00;-23992.38;5089251;28;20230;-69
2021/12/25 08:37:13;;;;;;;100.30;54.80;;;;;;;6.13;100.00;-23987.97;5090961;28;20177;-69
2021/12/25 08:39:39;;;;;;;92.73;53.30;;;;;;;6.00;100.00;-23984.28;5088435;28;20272;-69
2021/12/25 08:42:05;;;;;;;90.57;50.90;;;;;;;5.87;100.00;-23980.72;5077466;28;20177;-71
2021/12/25 08:44:37;;;;;;;84.00;46.83;;;;;;;5.86;100.00;-23980.44;5089870;28;20177;-69
2021/12/25 08:47:05;;;;;;;83.63;47.77;;;;;;;6.12;100.00;-23987.69;5089212;28;20197;-68
2021/12/25 08:49:32;;;;;;;88.43;51.70;;;;;;;6.37;100.00;-23994.66;5090246;28;20180;-69
2021/12/25 08:52:06;;;;;;;82.97;46.07;;;;;;;6.38;100.00;-23994.94;5082199;28;20185;-69
2021/12/25 08:54:32;;;;;;;84.10;48.10;;;;;;;6.34;100.00;-23993.94;5090869;28;20699;-69
2021/12/25 08:56:59;;;;;;;79.03;45.10;;;;;;;5.84;100.00;-23979.88;5091137;28;20264;-69
2021/12/25 08:59:27;;;;;;;78.23;43.80;;;;;;;6.23;100.00;-23990.81;5091410;28;20184;-72
2021/12/25 09:01:52;;;;;;;82.70;46.97;;;;;;;6.01;100.00;-23984.69;5090658;28;20252;-69
2021/12/25 09:04:18;;;;;;;81.87;47.07;;;;;;;6.60;100.00;-24001.31;5091483;28;20276;-69
2021/12/25 09:06:43;;;;;;;84.57;48.67;;;;;;;6.17;100.00;-23989.09;5091095;28;20265;-69
2021/12/25 09:09:09;;;;;;;88.83;50.57;;;;;;;6.33;100.00;-23993.66;5091134;28;20189;-69
2021/12/25 09:11:36;;;;;;;92.67;53.67;;;;;;;6.80;100.00;-24006.84;5091504;28;20616;-68
2021/12/25 09:14:03;;;;;;;90.00;52.67;;;;;;;6.84;100.00;-24008.00;5090668;28;20216;-69
2021/12/25 09:16:28;;;;;;;108.13;58.07;;;;;;;6.44;100.00;-23996.63;5091903;28;20189;-69
2021/12/25 09:18:54;;;;;;;116.17;63.77;;;;;;;6.73;100.00;-24004.88;5091218;28;20243;-69
2021/12/25 09:21:19;;;;;;;114.30;65.10;;;;;;;6.70;100.00;-24004.00;5091926;28;20243;-69
2021/12/25 09:23:45;;;;;;;111.43;64.10;;;;;;;6.54;100.00;-23999.63;5090783;28;20201;-69
2021/12/25 09:26:11;;;;;;;108.00;61.23;;;;;;;6.75;100.00;-24005.28;5091501;28;20180;-69
2021/12/25 09:28:36;;;;;;;115.03;64.63;;;;;;;7.06;100.00;-24014.22;5090785;28;20316;-69
2021/12/25 09:31:02;;;;;;;117.97;66.03;;;;;;;7.41;100.00;-24024.00;5091697;28;20633;-69
2021/12/25 09:33:30;;;;;;;113.37;65.73;;;;;;;7.69;100.00;-24031.66;5090509;28;20253;-69
2021/12/25 09:35:56;;;;;;;114.70;65.63;;;;;;;7.71;100.00;-24032.22;5091861;28;20205;-69
2021/12/25 09:38:22;;;;;;;113.93;66.63;;;;;;;7.43;100.00;-24024.44;5090913;28;20181;-70
2021/12/25 09:40:48;;;;;;;117.37;67.23;;;;;;;7.31;100.00;-24021.03;5091608;28;20721;-70
2021/12/25 09:43:14;;;;;;;118.00;67.60;;;;;;;7.32;100.00;-24021.31;5090713;28;20177;-70
2021/12/25 09:45:40;;;;;;;120.73;69.97;;;;;;;7.44;100.00;-24024.72;5091724;28;20628;-69
2021/12/25 09:48:05;;;;;;;120.17;67.43;;;;;;;7.43;100.00;-24024.44;5090932;28;20189;-70
2021/12/25 09:50:31;;;;;;;113.27;65.80;;;;;;;7.74;100.00;-24033.22;5091508;28;20307;-68
2021/12/25 09:52:57;;;;;;;115.10;62.73;;;;;;;7.70;99.55;-24032.09;5090062;28;20192;-70
2021/12/25 09:55:23;;;;;;;116.50;62.00;;;;;;;7.88;100.00;-24037.19;5091536;28;20197;-69
2021/12/25 09:57:48;;;;;;;111.43;63.60;;;;;;;7.79;100.00;-24034.50;5090604;28;20224;-70
2021/12/25 10:00:19;;;;;;;104.07;60.20;;;;;;;8.28;98.18;-24048.22;5091657;28;20526;-70
2021/12/25 10:02:48;;;;;;;97.67;55.93;;;;;;;7.95;97.66;-24039.03;5090720;28;20284;-70
2021/12/25 10:05:34;;;;;;;102.17;57.37;;;;;;;8.25;97.36;-24047.38;5082730;28;20561;-69
2021/12/25 10:08:11;;;;;;;93.00;53.60;;;;;;;8.74;95.68;-24061.25;5089312;28;20182;-70
2021/12/25 10:10:36;;;;;;;92.10;53.57;;;;;;;8.95;94.08;-24066.91;5090799;28;20177;-70
2021/12/25 10:13:02;;;;;;;91.60;52.80;;;;;;;8.40;94.23;-24051.63;5089689;28;20184;-68
2021/12/25 10:15:29;;;;;;;91.30;52.65;;;;;;;8.81;94.77;-24063.09;5093927;28;20565;-69
2021/12/25 10:17:57;;;;;;;94.13;49.67;;;;;;;9.05;94.75;-24069.75;5094179;28;20485;-70
2021/12/25 10:20:30;;;;;;;97.53;50.50;;;;;;;9.18;93.29;-24073.56;5095248;28;20181;-69
2021/12/25 10:23:14;;;;;;;90.55;51.42;;;;;;;9.15;93.49;-24072.56;5093998;28;20188;-69
2021/12/25 10:25:49;;;;;;;84.43;48.60;;;;;;;9.32;93.22;-24077.53;5094821;28;20188;-69
2021/12/25 10:28:21;;;;;;;84.85;47.83;;;;;;;9.53;92.03;-24083.31;5093271;28;20185;-69
2021/12/25 10:30:54;;;;;;;86.85;46.95;;;;;;;9.72;91.13;-24088.53;5094628;28;20185;-69
2021/12/25 10:33:27;;;;;;;83.18;47.78;;;;;;;9.14;91.94;-24072.44;5094181;28;20185;-69
2021/12/25 10:35:54;;;;;;;85.75;49.22;;;;;;;9.11;92.97;-24071.59;5094690;28;20703;-69
2021/12/25 10:38:22;;;;;;;87.63;49.78;;;;;;;9.32;93.69;-24077.53;5093400;28;20185;-69
2021/12/25 10:40:47;;;;;;;83.75;49.63;;;;;;;9.71;92.66;-24088.41;5094459;28;20174;-69
2021/12/25 10:43:21;;;;;;;86.05;48.88;;;;;;;9.84;91.36;-24091.94;5093537;28;20659;-69
2021/12/25 10:46:02;;;;;;;87.15;46.63;;;;;;;9.61;92.59;-24085.56;5094105;28;20593;-69
2021/12/25 10:48:30;;;;;;;81.43;45.38;;;;;;;9.62;93.01;-24085.84;5088033;28;20275;-69
2021/12/25 10:50:57;;;;;;;69.50;43.20;;;;;;;9.73;92.66;-24088.81;5093746;28;20225;-70
2021/12/25 10:53:28;;;;;;;74.40;43.35;;;;;;;9.91;92.90;-24093.78;5087096;28;20177;-70
2021/12/25 10:56:06;;;;;;;72.07;43.55;;;;;;;9.76;91.80;-24089.81;5094476;28;20193;-70
2021/12/25 10:58:31;;;;;;;71.88;43.88;;;;;;;9.90;91.42;-24093.47;5088720;28;20277;-70
2021/12/25 11:00:58;;;;;;;77.18;43.63;;;;;;;10.30;90.16;-24104.78;5094681;28;20272;-70
2021/12/25 11:03:30;;;;;;;74.60;44.08;;;;;;;10.46;89.96;-24109.16;5087619;28;20185;-69
2021/12/25 11:06:05;;;;;;;78.55;45.70;;;;;;;10.16;90.14;-24100.84;5093122;28;20184;-69
2021/12/25 11:08:31;;;;;;;76.30;45.80;;;;;;;10.14;90.39;-24100.41;5093443;28;20185;-69
2021/12/25 11:11:02;;;;;;;86.82;45.80;;;;;;;10.42;91.61;-24108.03;5094006;28;20188;-69
2021/12/25 11:13:41;;;;;;;77.90;44.47;;;;;;;10.49;91.19;-24110.16;5087282;28;20674;-69
2021/12/25 11:16:08;;;;;;;73.60;43.83;;;;;;;10.41;92.57;-24107.88;5093911;28;20200;-69
2021/12/25 11:19:58;;;;;;;75.65;42.30;;;;;;;10.41;92.42;-24107.88;5092908;28;20207;-69
2021/12/25 11:21:54;;;;;;;63.58;37.83;;;;;;;10.44;92.14;-24108.59;5071135;28;20193;-69
2021/12/25 11:24:20;;;;;;;63.67;38.15;;;;;;;10.69;90.61;-24115.50;5093125;28;20204;-68
2021/12/25 11:27:06;;;;;;;53.78;34.05;;;;;;;10.77;89.11;-24117.91;5092506;28;20628;-69
2021/12/25 11:29:33;;;;;;;54.30;34.80;;;;;;;10.60;89.01;-24113.25;5092797;28;20496;-69
2021/12/25 11:32:00;;;;;;;52.72;33.60;;;;;;;10.88;89.59;-24120.88;5074611;28;20371;-70
2021/12/25 11:34:27;;;;;;;58.15;34.15;;;;;;;10.93;89.87;-24122.41;5093545;28;20204;-70
2021/12/25 11:36:56;;;;;;;64.03;35.58;;;;;;;10.84;89.81;-24119.75;5092822;28;20616;-68
2021/12/25 11:39:24;;;;;;;53.45;33.58;;;;;;;10.89;89.09;-24121.16;5092955;28;20173;-69
2021/12/25 11:41:55;;;;;;;54.90;33.05;;;;;;;10.58;90.31;-24112.69;5093126;28;20189;-70
2021/12/25 11:44:39;;;;;;;52.40;31.70;;;;;;;10.97;89.19;-24123.53;5093208;28;20181;-69
2021/12/25 11:47:06;;;;;;;50.45;31.40;;;;;;;11.02;89.61;-24124.97;5092840;28;20174;-69
2021/12/25 11:49:32;;;;;;;52.75;31.50;;;;;;;10.50;89.85;-24110.44;5092999;28;20181;-69
2021/12/25 11:52:24;;;;;;;59.13;33.10;;;;;;;10.99;90.19;-24124.13;5092572;28;20183;-69
2021/12/25 11:57:47;;;;;;;47.58;29.95;;;;;;;10.84;90.28;-24119.75;5092575;28;20669;-71
2021/12/25 12:00:13;;;;;;;45.63;28.77;;;;;;;11.31;88.87;-24133.00;5084658;28;20177;-70
2021/12/25 12:02:41;;;;;;;48.35;28.48;;;;;;;11.13;89.28;-24127.78;5092764;28;20619;-69
2021/12/25 12:05:25;;;;;;;48.58;27.83;;;;;;;11.02;89.60;-24124.81;5093034;28;20636;-67
2021/12/25 12:08:08;;;;;;;44.40;27.67;;;;;;;10.67;89.50;-24114.94;5091879;28;20573;-69
2021/12/25 12:11:00;;;;;;;46.03;26.98;;;;;;;10.92;90.61;-24122.13;5092851;28;20264;-70
2021/12/25 12:13:31;;;;;;;46.05;28.17;;;;;;;10.82;89.54;-24119.19;5082337;28;20201;-69
2021/12/25 12:16:03;;;;;;;46.70;27.40;;;;;;;11.26;89.51;-24131.59;5092469;28;20213;-69
2021/12/25 12:18:31;;;;;;;45.47;28.02;;;;;;;11.30;88.70;-24132.72;5086138;28;20724;-69
2021/12/25 12:21:05;;;;;;;48.95;27.90;;;;;;;11.06;89.32;-24125.94;5092798;28;20184;-69
2021/12/25 12:26:09;;;;;;;47.95;29.25;;;;;;;10.79;90.25;-24118.34;5092583;28;20188;-69
2021/12/25 12:28:46;;;;;;;46.80;29.40;;;;;;;10.68;90.61;-24115.22;5091897;28;20188;-69